Flight Track Log - Related Links

Times and Time Zones

All times are in EDT time to prevent confusion due to time zone crossing. See the N517MD flight status page for this flight to view local times or setup timezone preferences in your user account.

Time Position Orientation Groundspeed Altitude Reporting Facility
EDT Latitude Longitude Course Direction KTS MPH feet Rate Location/Type
Mon 03:34:07 PM 28.5500 -81.3167 41° Northeast 163 188 900  Level Orlando TRACON
Mon 03:35:01 PM 28.5833 -81.2833 41° Northeast 180 207 2,200 524 Climbing Orlando TRACON
Mon 03:36:13 PM 28.5833 -81.2167 90° East 172 198 2,000 524 Descending Orlando TRACON
Mon 03:37:07 PM 28.5500 -81.1667 127° Southeast 235 270 3,300 1,053 Climbing Orlando TRACON
Mon 03:38:07 PM 28.5000 -81.1667 180° South 220 253 4,000 368 Climbing Orlando TRACON
Mon 03:39:01 PM 28.4667 -81.2333 240° Southwest 233 268 4,000 800 Level Orlando TRACON
Mon 03:40:07 PM 28.4667 -81.3167 270° West 269 310 5,600 1,714 Climbing Orlando TRACON
Mon 03:41:07 PM 28.4500 -81.4000 257° West 271 312 7,600 1,983 Climbing Orlando TRACON
Mon 03:42:08 PM 28.4667 -81.4833 283° West 279 321 9,600 1,983 Climbing Orlando TRACON
Mon 03:43:08 PM 28.4833 -81.5667 283° West 274 315 11,600 1,803 Climbing Orlando TRACON
Mon 03:45:31 PM 28.4414 -81.7689 257° West 286 329 15,700 1,574 Climbing Jacksonville Center
Mon 03:46:30 PM 28.4192 -81.8636 255° West 293 337 16,900 1,200 Climbing Jacksonville Center
Mon 03:47:31 PM 28.3947 -81.9558 253° West 298 343 18,100 1,300 Climbing Jacksonville Center
Mon 03:48:30 PM 28.3683 -82.0528 253° West 311 358 19,500 1,361 Climbing Jacksonville Center
Mon 03:49:30 PM 28.3419 -82.1497 253° West 322 371 20,800 1,190 Climbing Jacksonville Center
Mon 03:50:31 PM 28.3194 -82.2442 255° West 322 371 21,900 1,050 Climbing Jacksonville Center
Mon 03:51:30 PM 28.2906 -82.3433 252° West 322 371 22,900 958 Climbing Jacksonville Center
Mon 03:52:30 PM 28.2639 -82.4472 254° West 328 377 23,800 942 Climbing Jacksonville Center
Mon 03:53:31 PM 28.2372 -82.5461 253° West 333 383 24,800 942 Climbing Jacksonville Center
Mon 03:54:31 PM 28.2103 -82.6522 254° West 338 389 25,700 958 Climbing Jacksonville Center
Mon 03:55:30 PM 28.1833 -82.7561 254° West 344 396 26,700 984 Climbing Jacksonville Center
Mon 03:57:40 PM 28.1200 -82.9833 253° West 343 395 28,800 947 Climbing Miami Center
Mon 03:58:40 PM 28.0925 -83.0900 254° West 354 407 29,700 600 Climbing Miami Center
Mon 03:59:40 PM 28.0625 -83.2011 253° West 360 414 30,000 200 Climbing Miami Center
Mon 04:00:40 PM 28.0281 -83.3192 252° West 375 432 30,100 500 Climbing Miami Center
Mon 04:01:40 PM 27.9956 -83.4347 252° West 388 447 31,000 900 Climbing Miami Center
Mon 04:02:40 PM 27.9553 -83.5450 248° West 388 447 31,900 900 Climbing Miami Center
Mon 04:03:40 PM 27.9144 -83.6578 248° West 393 452 32,800 750 Climbing Miami Center
Mon 04:04:40 PM 27.8694 -83.7700 246° West 393 452 33,400 650 Climbing Miami Center
Mon 04:05:40 PM 27.8000 -83.8667 231° Southwest 388 447 34,100 700 Climbing Miami Center
Mon 04:06:40 PM 27.7269 -83.9533 226° Southwest 404 465 34,800 650 Climbing Miami Center
Mon 04:07:40 PM 27.6536 -84.0450 228° Southwest 399 459 35,400 600 Climbing Miami Center
Mon 04:08:40 PM 27.5803 -84.1361 228° Southwest 399 459 36,000 550 Climbing Miami Center
Mon 04:09:40 PM 27.5028 -84.2272 226° Southwest 399 459 36,500 450 Climbing Miami Center
Mon 04:10:40 PM 27.4292 -84.3206 228° Southwest 399 459 36,900 300 Climbing Miami Center
Mon 04:11:40 PM 27.3511 -84.4158 227° Southwest 404 465 37,100 200 Climbing Miami Center
Mon 04:12:40 PM 27.2692 -84.5086 225° Southwest 410 472 37,300 200 Climbing Miami Center
Mon 04:13:40 PM 27.1931 -84.6083 229° Southwest 416 479 37,500 197 Climbing Miami Center
Mon 04:15:12 PM 27.0853 -84.7422 228° Southwest 429 494 37,800 195 Climbing Houston Center
Mon 04:16:14 PM 26.9858 -84.8617 227° Southwest 437 503 38,000 97 Climbing Houston Center
Mon 04:17:16 PM 26.9042 -84.9625 228° Southwest 437 503 38,000  Level Houston Center
Mon 04:18:17 PM 26.8214 -85.0625 227° Southwest 439 505 38,000  Level Houston Center
Mon 04:19:19 PM 26.7381 -85.1619 227° Southwest 440 506 38,000  Level Houston Center
Mon 04:20:21 PM 26.6547 -85.2633 227° Southwest 443 510 38,000  Level Houston Center
Mon 04:21:23 PM 26.5711 -85.3622 227° Southwest 439 505 38,000  Level Houston Center
Mon 04:22:25 PM 26.4886 -85.4600 227° Southwest 434 499 38,000  Level Houston Center
Mon 04:23:26 PM 26.3900 -85.5781 227° Southwest 434 499 38,000  Level Houston Center
Mon 04:24:28 PM 26.3078 -85.6750 227° Southwest 432 497 38,000  Level Houston Center
Mon 04:25:30 PM 26.2250 -85.7717 226° Southwest 432 497 38,000  Level Houston Center
Mon 04:26:32 PM 26.1447 -85.8697 228° Southwest 429 494 38,000 -48 Level Houston Center
Mon 04:27:34 PM 26.0628 -85.9656 226° Southwest 428 493 37,900  Descending Houston Center
Mon 04:28:36 PM 25.9881 -86.0694 231° Southwest 430 495 38,000 97 Climbing Houston Center
Mon 04:30:00 PM 25.8937 -86.2010 231° Southwest  Level FlightAware Approximate
Mon 04:37:00 PM 25.4295 -86.8632 235° Southwest  Level FlightAware Approximate
Mon 04:38:00 PM 25.3629 -86.9574 231° Southwest  Level FlightAware Approximate
Mon 04:39:00 PM 25.2951 -87.0505 231° Southwest  Level FlightAware Approximate
Mon 04:40:00 PM 25.2305 -87.1462 234° Southwest  Level FlightAware Approximate
Mon 04:41:00 PM 25.1664 -87.2424 234° Southwest  Level FlightAware Approximate
Mon 04:42:00 PM 25.1023 -87.3385 234° Southwest  Level FlightAware Approximate
Mon 04:43:00 PM 25.0374 -87.4338 231° Southwest  Level FlightAware Approximate
Mon 04:44:00 PM 24.9692 -87.5263 231° Southwest  Level FlightAware Approximate
Mon 04:45:00 PM 24.9009 -87.6187 231° Southwest  Level FlightAware Approximate
Mon 04:46:00 PM 24.8326 -87.7110 231° Southwest  Level FlightAware Approximate
Mon 04:47:00 PM 24.7644 -87.8034 234° Southwest  Level FlightAware Approximate
Mon 04:48:00 PM 24.7006 -87.8994 234° Southwest  Level FlightAware Approximate
Mon 04:49:00 PM 24.6367 -87.9953 234° Southwest  Level FlightAware Approximate
Mon 04:50:00 PM 24.5728 -88.0911 234° Southwest  Level FlightAware Approximate
Mon 04:51:00 PM 24.5088 -88.1868 234° Southwest  Level FlightAware Approximate
Mon 04:52:00 PM 24.4566 -88.2906 242° Southwest  Level FlightAware Approximate
Mon 04:53:00 PM 24.4063 -88.3957 242° Southwest  Level FlightAware Approximate
Mon 04:54:00 PM 24.3559 -88.5006 242° Southwest  Level FlightAware Approximate
Mon 04:55:00 PM 24.3054 -88.6055 242° Southwest  Level FlightAware Approximate
Mon 04:56:00 PM 24.2568 -88.7113 243° Southwest  Level FlightAware Approximate
Mon 04:57:00 PM 24.2083 -88.8172 243° Southwest  Level FlightAware Approximate
Mon 04:58:00 PM 24.1597 -88.9230 243° Southwest  Level FlightAware Approximate
Mon 04:59:00 PM 24.1110 -89.0288 243° Southwest  Level FlightAware Approximate
Mon 05:00:00 PM 24.0619 -89.1342 243° Southwest  Level FlightAware Approximate
Mon 05:01:00 PM 24.0128 -89.2396 243° Southwest  Level FlightAware Approximate
Mon 05:02:00 PM 23.9635 -89.3449 243° Southwest  Level FlightAware Approximate
Mon 05:03:00 PM 23.9142 -89.4501 243° Southwest  Level FlightAware Approximate
Mon 05:04:00 PM 23.8648 -89.5552 243° Southwest  Level FlightAware Approximate
Mon 05:05:00 PM 23.8154 -89.6602 243° Southwest  Level FlightAware Approximate
Mon 05:06:00 PM 23.7658 -89.7652 243° Southwest  Level FlightAware Approximate
Mon 05:07:00 PM 23.7162 -89.8701 243° Southwest  Level FlightAware Approximate
Mon 05:08:00 PM 23.6666 -89.9749 243° Southwest  Level FlightAware Approximate
Mon 05:09:00 PM 23.6168 -90.0796 243° Southwest  Level FlightAware Approximate
Mon 05:10:00 PM 23.5669 -90.1842 242° Southwest  Level FlightAware Approximate
Mon 05:11:00 PM 23.5165 -90.2885 242° Southwest  Level FlightAware Approximate
Mon 05:12:00 PM 23.4661 -90.3927 242° Southwest  Level FlightAware Approximate
Mon 05:13:00 PM 23.4156 -90.4968 242° Southwest  Level FlightAware Approximate
Mon 05:14:00 PM 23.3651 -90.6009 242° Southwest  Level FlightAware Approximate
Mon 05:15:00 PM 23.3145 -90.7049 242° Southwest  Level FlightAware Approximate
Mon 05:16:00 PM 23.2638 -90.8088 242° Southwest  Level FlightAware Approximate
Mon 05:17:00 PM 23.2131 -90.9126 242° Southwest  Level FlightAware Approximate
Mon 05:18:00 PM 23.1622 -91.0164 242° Southwest  Level FlightAware Approximate
Mon 05:19:00 PM 23.1113 -91.1200 242° Southwest  Level FlightAware Approximate
Mon 05:20:00 PM 23.0604 -91.2236 242° Southwest  Level FlightAware Approximate
Mon 05:21:00 PM 23.0094 -91.3271 242° Southwest  Level FlightAware Approximate
Mon 05:22:00 PM 22.9583 -91.4306 242° Southwest  Level FlightAware Approximate
Mon 05:23:00 PM 22.9071 -91.5339 242° Southwest  Level FlightAware Approximate
Mon 05:24:00 PM 22.8559 -91.6372 242° Southwest  Level FlightAware Approximate
Mon 05:25:00 PM 22.8046 -91.7404 242° Southwest  Level FlightAware Approximate
Mon 05:26:00 PM 22.7532 -91.8435 242° Southwest  Level FlightAware Approximate
Mon 05:27:00 PM 22.7018 -91.9466 242° Southwest  Level FlightAware Approximate
Mon 05:28:00 PM 22.6503 -92.0496 242° Southwest  Level FlightAware Approximate
Mon 05:29:00 PM 22.5988 -92.1524 242° Southwest  Level FlightAware Approximate
Mon 05:30:00 PM 22.5478 -92.2556 242° Southwest  Level FlightAware Approximate
Mon 05:31:00 PM 22.4968 -92.3587 242° Southwest  Level FlightAware Approximate
Mon 05:32:00 PM 22.4457 -92.4618 242° Southwest  Level FlightAware Approximate
Mon 05:33:00 PM 22.3945 -92.5647 242° Southwest  Level FlightAware Approximate
Mon 05:34:00 PM 22.3432 -92.6676 242° Southwest  Level FlightAware Approximate
Mon 05:35:00 PM 22.2919 -92.7704 242° Southwest  Level FlightAware Approximate
Mon 05:36:00 PM 22.2406 -92.8732 242° Southwest  Level FlightAware Approximate
Mon 05:37:00 PM 22.1891 -92.9758 242° Southwest  Level FlightAware Approximate
Mon 05:38:00 PM 22.1376 -93.0784 242° Southwest  Level FlightAware Approximate
Mon 05:39:00 PM 22.0861 -93.1809 242° Southwest  Level FlightAware Approximate
Mon 05:40:00 PM 22.0344 -93.2833 241° Southwest  Level FlightAware Approximate
Mon 05:41:00 PM 21.9827 -93.3857 241° Southwest  Level FlightAware Approximate
Mon 05:42:00 PM 21.9310 -93.4880 241° Southwest  Level FlightAware Approximate
Mon 05:43:00 PM 21.8790 -93.5900 241° Southwest  Level FlightAware Approximate
Mon 05:44:00 PM 21.8269 -93.6920 241° Southwest  Level FlightAware Approximate
Mon 05:45:00 PM 21.7747 -93.7940 241° Southwest  Level FlightAware Approximate
Mon 05:46:00 PM 21.7225 -93.8958 241° Southwest  Level FlightAware Approximate
Mon 05:47:00 PM 21.6702 -93.9976 241° Southwest  Level FlightAware Approximate
Mon 05:48:00 PM 21.6179 -94.0993 241° Southwest  Level FlightAware Approximate
Mon 05:49:00 PM 21.5655 -94.2010 241° Southwest  Level FlightAware Approximate
Mon 05:50:00 PM 21.5130 -94.3025 241° Southwest  Level FlightAware Approximate
Mon 05:51:00 PM 21.4604 -94.4040 241° Southwest  Level FlightAware Approximate
Mon 05:52:00 PM 21.4079 -94.5054 241° Southwest  Level FlightAware Approximate
Mon 05:53:00 PM 21.3552 -94.6068 241° Southwest  Level FlightAware Approximate
Mon 05:54:00 PM 21.3025 -94.7081 241° Southwest  Level FlightAware Approximate
Mon 05:55:00 PM 21.2497 -94.8093 241° Southwest  Level FlightAware Approximate
Mon 05:56:00 PM 21.1969 -94.9104 241° Southwest  Level FlightAware Approximate
Mon 05:57:00 PM 21.1442 -95.0116 242° Southwest  Level FlightAware Approximate
Mon 05:58:00 PM 21.0932 -95.1137 242° Southwest  Level FlightAware Approximate
Mon 05:59:00 PM 21.0422 -95.2158 242° Southwest  Level FlightAware Approximate
Mon 06:00:00 PM 21.0054 -95.3234 258° West  Level FlightAware Approximate
Mon 06:01:00 PM 20.9830 -95.4366 258° West  Level FlightAware Approximate
Mon 06:02:00 PM 20.9604 -95.5498 258° West  Level FlightAware Approximate
Mon 06:03:00 PM 20.9378 -95.6629 258° West  Level FlightAware Approximate
Mon 06:04:00 PM 20.9151 -95.7760 258° West  Level FlightAware Approximate
Mon 06:05:00 PM 20.8923 -95.8891 258° West  Level FlightAware Approximate
Mon 06:06:00 PM 20.8702 -96.0024 259° West  Level FlightAware Approximate
Mon 06:07:00 PM 20.8487 -96.1157 259° West  Level FlightAware Approximate
Mon 06:08:00 PM 20.8270 -96.2290 258° West  Level FlightAware Approximate
Mon 06:09:00 PM 20.8053 -96.3422 258° West  Level FlightAware Approximate
Mon 06:10:00 PM 20.7835 -96.4554 258° West  Level FlightAware Approximate
Mon 06:11:00 PM 20.7616 -96.5686 258° West  Level FlightAware Approximate
Mon 06:12:00 PM 20.7397 -96.6817 258° West  Level FlightAware Approximate
Mon 06:13:00 PM 20.7177 -96.7949 258° West  Level FlightAware Approximate
Mon 06:14:00 PM 20.6974 -96.9083 259° West  Level FlightAware Approximate
Mon 06:15:00 PM 20.6772 -97.0218 259° West  Level FlightAware Approximate
Mon 06:16:00 PM 20.6568 -97.1352 259° West  Level FlightAware Approximate
Mon 06:17:00 PM 20.6364 -97.2486 259° West  Level FlightAware Approximate
Mon 06:18:00 PM 20.6159 -97.3620 259° West  Level FlightAware Approximate
Mon 06:19:00 PM 20.5896 -97.4734 245° Southwest  Level FlightAware Approximate
Mon 06:20:00 PM 20.5433 -97.5776 245° Southwest  Level FlightAware Approximate
Mon 06:21:00 PM 20.5018 -97.6841 248° West  Level FlightAware Approximate
Mon 06:22:00 PM 20.4617 -97.7912 248° West  Level FlightAware Approximate
Mon 06:23:00 PM 20.4267 -97.8992 246° West  Level FlightAware Approximate
Mon 06:24:00 PM 20.3825 -98.0044 246° West  Level FlightAware Approximate
Mon 06:25:00 PM 20.3382 -98.1095 246° West  Level FlightAware Approximate
Mon 06:26:00 PM 20.2961 -98.2155 255° West  Level FlightAware Approximate
Mon 06:27:00 PM 20.2605 -98.3239 247° West  Level FlightAware Approximate
Mon 06:28:00 PM 20.2181 -98.4299 247° West  Level FlightAware Approximate
Mon 06:29:00 PM 20.1757 -98.5358 247° West  Level FlightAware Approximate
Mon 06:30:00 PM 20.1333 -98.6417 247° West  Level FlightAware Approximate
Mon 06:31:00 PM 20.0573 -98.7130 205° Southwest  Level FlightAware Approximate
Mon 06:32:00 PM 19.9601 -98.7632 206° Southwest  Level FlightAware Approximate
Mon 06:33:00 PM 19.8633 -98.8142 206° Southwest  Level FlightAware Approximate
Mon 06:34:00 PM 19.7664 -98.8651 206° Southwest  Level FlightAware Approximate
Mon 06:35:00 PM 19.6707 -98.9183 210° Southwest  Level FlightAware Approximate
Mon 06:36:00 PM 19.5776 -98.9765 210° Southwest  Level FlightAware Approximate
Mon 06:37:00 PM 19.4845 -99.0347 211° Southwest  Level FlightAware Approximate
Mon 06:38:00 PM 19.4209 -99.1166 255° West  Level FlightAware Approximate
Mon 06:39:00 PM 19.3993 -99.2288 259° West  Level FlightAware Approximate
Mon 06:40:00 PM 19.3833 -99.3418 270° West  Level FlightAware Approximate
Mon 06:41:00 PM 19.3667 -99.4533 270° West  Level FlightAware Approximate
Mon 06:42:00 PM 19.3501 -99.5660 258° West  Level FlightAware Approximate
Mon 06:43:00 PM 19.3500 -99.5667 North  Level FlightAware Approximate
Mon 06:44:00 PM 19.3371 -99.5660 North  Level Estimated
Mon 06:45:00 PM 19.3371 -99.5660 North  Level Estimated
Mon 06:46:00 PM 19.3371 -99.5660 North  Level Estimated
Mon 06:47:00 PM 19.3371 -99.5660 North  Level Estimated
Mon 06:48:00 PM 19.3371 -99.5660 North  Level Estimated
Mon 06:49:00 PM 19.3371 -99.5660 North  Level Estimated
Mon 06:50:00 PM 19.3371 -99.5660 North  Level Estimated

Login

Don't have an account? Register now (free) for customized features, flight alerts, and more!